sensor_id;sensor_type;location;lat;lon;timestamp;temperature;humidity
13049;DHT22;6591;51.446;5.404;2022-12-29T00:01:06;15.40;99.90
13049;DHT22;6591;51.446;5.404;2022-12-29T00:03:33;13.30;99.90
13049;DHT22;6591;51.446;5.404;2022-12-29T00:06:01;13.30;99.90
13049;DHT22;6591;51.446;5.404;2022-12-29T00:08:29;13.30;99.90
13049;DHT22;6591;51.446;5.404;2022-12-29T00:11:17;15.50;99.90
13049;DHT22;6591;51.446;5.404;2022-12-29T00:13:47;13.20;99.90
13049;DHT22;6591;51.446;5.404;2022-12-29T00:16:37;13.10;99.90
13049;DHT22;6591;51.446;5.404;2022-12-29T00:19:05;14.20;99.90
13049;DHT22;6591;51.446;5.404;2022-12-29T00:21:32;13.00;99.90
13049;DHT22;6591;51.446;5.404;2022-12-29T00:24:21;13.00;99.90
13049;DHT22;6591;51.446;5.404;2022-12-29T00:27:10;12.90;99.90
13049;DHT22;6591;51.446;5.404;2022-12-29T00:29:58;12.80;99.90
13049;DHT22;6591;51.446;5.404;2022-12-29T00:32:46;12.80;99.90
13049;DHT22;6591;51.446;5.404;2022-12-29T00:35:40;14.50;99.90
13049;DHT22;6591;51.446;5.404;2022-12-29T00:38:16;13.50;99.90
13049;DHT22;6591;51.446;5.404;2022-12-29T00:41:02;12.60;99.90
13049;DHT22;6591;51.446;5.404;2022-12-29T00:43:49;12.70;99.90
13049;DHT22;6591;51.446;5.404;2022-12-29T00:46:36;13.70;99.90
13049;DHT22;6591;51.446;5.404;2022-12-29T00:49:06;12.70;99.90
13049;DHT22;6591;51.446;5.404;2022-12-29T00:51:54;12.70;99.90
13049;DHT22;6591;51.446;5.404;2022-12-29T00:54:22;12.80;99.90
13049;DHT22;6591;51.446;5.404;2022-12-29T00:56:51;12.90;99.90
13049;DHT22;6591;51.446;5.404;2022-12-29T00:59:20;13.00;99.90
13049;DHT22;6591;51.446;5.404;2022-12-29T01:01:52;12.80;99.90
13049;DHT22;6591;51.446;5.404;2022-12-29T01:04:22;12.90;99.90
13049;DHT22;6591;51.446;5.404;2022-12-29T01:06:50;13.00;99.90
13049;DHT22;6591;51.446;5.404;2022-12-29T01:09:21;12.90;99.90
13049;DHT22;6591;51.446;5.404;2022-12-29T01:12:08;13.00;99.90
13049;DHT22;6591;51.446;5.404;2022-12-29T01:14:37;14.40;99.90
13049;DHT22;6591;51.446;5.404;2022-12-29T01:17:05;14.30;99.90
13049;DHT22;6591;51.446;5.404;2022-12-29T01:19:33;13.60;99.90
13049;DHT22;6591;51.446;5.404;2022-12-29T01:22:00;14.90;99.90
13049;DHT22;6591;51.446;5.404;2022-12-29T01:24:28;12.90;99.90
13049;DHT22;6591;51.446;5.404;2022-12-29T01:26:55;12.90;99.90
13049;DHT22;6591;51.446;5.404;2022-12-29T01:29:22;14.10;99.90
13049;DHT22;6591;51.446;5.404;2022-12-29T01:31:49;13.00;99.90
13049;DHT22;6591;51.446;5.404;2022-12-29T01:34:20;12.90;99.90
13049;DHT22;6591;51.446;5.404;2022-12-29T01:36:50;13.00;99.90
13049;DHT22;6591;51.446;5.404;2022-12-29T01:39:19;14.30;99.90
13049;DHT22;6591;51.446;5.404;2022-12-29T01:41:46;13.10;99.90
13049;DHT22;6591;51.446;5.404;2022-12-29T01:52:44;15.20;99.90
13049;DHT22;6591;51.446;5.404;2022-12-29T01:55:34;13.20;99.90
13049;DHT22;6591;51.446;5.404;2022-12-29T01:58:09;13.20;99.90
13049;DHT22;6591;51.446;5.404;2022-12-29T02:00:39;15.10;99.90
13049;DHT22;6591;51.446;5.404;2022-12-29T02:03:08;12.40;99.90
13049;DHT22;6591;51.446;5.404;2022-12-29T02:05:46;13.30;99.90
13049;DHT22;6591;51.446;5.404;2022-12-29T02:08:20;13.30;99.90
13049;DHT22;6591;51.446;5.404;2022-12-29T02:10:51;13.30;99.90
13049;DHT22;6591;51.446;5.404;2022-12-29T02:13:24;14.40;99.90
13049;DHT22;6591;51.446;5.404;2022-12-29T02:31:59;13.50;99.90
13049;DHT22;6591;51.446;5.404;2022-12-29T02:35:05;13.40;99.90
13049;DHT22;6591;51.446;5.404;2022-12-29T02:37:58;13.40;99.90
13049;DHT22;6591;51.446;5.404;2022-12-29T02:43:18;14.90;99.90
13049;DHT22;6591;51.446;5.404;2022-12-29T02:45:53;13.40;99.90
13049;DHT22;6591;51.446;5.404;2022-12-29T02:48:39;14.00;99.90
13049;DHT22;6591;51.446;5.404;2022-12-29T02:53:48;14.30;99.90
13049;DHT22;6591;51.446;5.404;2022-12-29T02:56:40;13.30;99.90
13049;DHT22;6591;51.446;5.404;2022-12-29T02:59:08;15.10;99.90
13049;DHT22;6591;51.446;5.404;2022-12-29T03:01:52;13.30;99.90
13049;DHT22;6591;51.446;5.404;2022-12-29T03:11:09;13.30;99.90
13049;DHT22;6591;51.446;5.404;2022-12-29T03:14:27;13.90;99.90
13049;DHT22;6591;51.446;5.404;2022-12-29T03:17:39;14.90;99.90
13049;DHT22;6591;51.446;5.404;2022-12-29T03:20:19;13.20;99.90
13049;DHT22;6591;51.446;5.404;2022-12-29T03:22:58;13.10;99.90
13049;DHT22;6591;51.446;5.404;2022-12-29T03:25:36;13.50;99.90
13049;DHT22;6591;51.446;5.404;2022-12-29T03:28:13;13.90;99.90
13049;DHT22;6591;51.446;5.404;2022-12-29T03:30:47;13.00;99.90
13049;DHT22;6591;51.446;5.404;2022-12-29T03:33:23;13.10;99.90
13049;DHT22;6591;51.446;5.404;2022-12-29T03:35:58;14.30;99.90
13049;DHT22;6591;51.446;5.404;2022-12-29T03:38:52;14.30;99.90
13049;DHT22;6591;51.446;5.404;2022-12-29T03:41:29;14.80;99.90
13049;DHT22;6591;51.446;5.404;2022-12-29T03:44:01;14.60;99.90
13049;DHT22;6591;51.446;5.404;2022-12-29T03:46:28;13.10;99.90
13049;DHT22;6591;51.446;5.404;2022-12-29T03:48:56;14.50;99.90
13049;DHT22;6591;51.446;5.404;2022-12-29T03:51:23;12.80;99.90
13049;DHT22;6591;51.446;5.404;2022-12-29T03:53:50;12.70;99.90
13049;DHT22;6591;51.446;5.404;2022-12-29T03:56:18;14.70;99.90
13049;DHT22;6591;51.446;5.404;2022-12-29T03:58:45;13.50;99.90
13049;DHT22;6591;51.446;5.404;2022-12-29T04:01:20;13.80;99.90
13049;DHT22;6591;51.446;5.404;2022-12-29T04:03:47;12.60;99.90
13049;DHT22;6591;51.446;5.404;2022-12-29T04:06:15;14.60;99.90
13049;DHT22;6591;51.446;5.404;2022-12-29T04:08:49;12.80;99.90
13049;DHT22;6591;51.446;5.404;2022-12-29T04:11:16;13.60;99.90
13049;DHT22;6591;51.446;5.404;2022-12-29T04:13:44;12.50;99.90
13049;DHT22;6591;51.446;5.404;2022-12-29T04:16:15;14.00;99.90
13049;DHT22;6591;51.446;5.404;2022-12-29T04:18:42;13.90;99.90
13049;DHT22;6591;51.446;5.404;2022-12-29T04:21:09;12.40;99.90
13049;DHT22;6591;51.446;5.404;2022-12-29T04:23:39;12.60;99.90
13049;DHT22;6591;51.446;5.404;2022-12-29T04:26:09;13.10;99.90
13049;DHT22;6591;51.446;5.404;2022-12-29T04:28:48;12.90;99.90
13049;DHT22;6591;51.446;5.404;2022-12-29T04:31:26;13.90;99.90
13049;DHT22;6591;51.446;5.404;2022-12-29T04:33:53;12.10;99.90
13049;DHT22;6591;51.446;5.404;2022-12-29T04:36:20;12.10;99.90
13049;DHT22;6591;51.446;5.404;2022-12-29T04:38:55;13.80;99.90
13049;DHT22;6591;51.446;5.404;2022-12-29T04:41:23;12.20;99.90
13049;DHT22;6591;51.446;5.404;2022-12-29T04:43:52;13.30;99.90
13049;DHT22;6591;51.446;5.404;2022-12-29T04:46:37;11.80;99.90
13049;DHT22;6591;51.446;5.404;2022-12-29T04:49:09;11.80;99.90
13049;DHT22;6591;51.446;5.404;2022-12-29T04:51:54;12.40;99.90
13049;DHT22;6591;51.446;5.404;2022-12-29T04:54:22;11.70;99.90
13049;DHT22;6591;51.446;5.404;2022-12-29T04:56:57;12.30;99.90
13049;DHT22;6591;51.446;5.404;2022-12-29T04:59:25;11.60;99.90
13049;DHT22;6591;51.446;5.404;2022-12-29T05:01:56;11.60;99.90
13049;DHT22;6591;51.446;5.404;2022-12-29T05:04:23;11.70;99.90
13049;DHT22;6591;51.446;5.404;2022-12-29T05:06:52;11.60;99.90
13049;DHT22;6591;51.446;5.404;2022-12-29T05:09:18;11.70;99.90
13049;DHT22;6591;51.446;5.404;2022-12-29T05:11:46;11.50;99.90
13049;DHT22;6591;51.446;5.404;2022-12-29T05:14:13;11.50;99.90
13049;DHT22;6591;51.446;5.404;2022-12-29T05:16:42;11.60;99.90
13049;DHT22;6591;51.446;5.404;2022-12-29T05:19:09;11.50;99.90
13049;DHT22;6591;51.446;5.404;2022-12-29T05:21:36;12.80;99.90
13049;DHT22;6591;51.446;5.404;2022-12-29T05:24:04;12.80;99.90
13049;DHT22;6591;51.446;5.404;2022-12-29T05:26:31;11.50;99.90
13049;DHT22;6591;51.446;5.404;2022-12-29T05:29:07;11.60;99.90
13049;DHT22;6591;51.446;5.404;2022-12-29T05:31:34;11.60;99.90
13049;DHT22;6591;51.446;5.404;2022-12-29T05:34:03;11.70;99.90
13049;DHT22;6591;51.446;5.404;2022-12-29T05:36:31;13.40;99.90
13049;DHT22;6591;51.446;5.404;2022-12-29T05:39:05;14.60;99.90
13049;DHT22;6591;51.446;5.404;2022-12-29T05:41:35;13.80;99.90
13049;DHT22;6591;51.446;5.404;2022-12-29T05:44:20;11.90;99.90
13049;DHT22;6591;51.446;5.404;2022-12-29T05:47:23;12.50;99.90
13049;DHT22;6591;51.446;5.404;2022-12-29T05:50:11;12.90;99.90
13049;DHT22;6591;51.446;5.404;2022-12-29T05:52:57;12.10;99.90
13049;DHT22;6591;51.446;5.404;2022-12-29T05:55:24;12.10;99.90
13049;DHT22;6591;51.446;5.404;2022-12-29T05:57:53;12.10;99.90
13049;DHT22;6591;51.446;5.404;2022-12-29T06:00:20;12.20;99.90
13049;DHT22;6591;51.446;5.404;2022-12-29T06:02:47;12.20;99.90
13049;DHT22;6591;51.446;5.404;2022-12-29T06:05:16;12.30;99.90
13049;DHT22;6591;51.446;5.404;2022-12-29T06:07:43;12.30;99.90
13049;DHT22;6591;51.446;5.404;2022-12-29T06:10:15;12.30;99.90
13049;DHT22;6591;51.446;5.404;2022-12-29T06:13:02;12.40;99.90
13049;DHT22;6591;51.446;5.404;2022-12-29T06:15:35;13.90;99.90
13049;DHT22;6591;51.446;5.404;2022-12-29T06:18:05;13.50;99.90
13049;DHT22;6591;51.446;5.404;2022-12-29T06:20:33;12.40;99.90
13049;DHT22;6591;51.446;5.404;2022-12-29T06:23:04;12.50;99.90
13049;DHT22;6591;51.446;5.404;2022-12-29T06:25:31;12.70;99.90
13049;DHT22;6591;51.446;5.404;2022-12-29T06:28:01;12.50;99.90
13049;DHT22;6591;51.446;5.404;2022-12-29T06:30:30;12.50;99.90
13049;DHT22;6591;51.446;5.404;2022-12-29T06:32:59;12.50;99.90
13049;DHT22;6591;51.446;5.404;2022-12-29T06:35:27;14.30;99.90
13049;DHT22;6591;51.446;5.404;2022-12-29T06:37:55;12.60;99.90
13049;DHT22;6591;51.446;5.404;2022-12-29T06:40:22;12.60;99.90
13049;DHT22;6591;51.446;5.404;2022-12-29T06:43:08;12.50;99.90
13049;DHT22;6591;51.446;5.404;2022-12-29T06:45:58;12.50;99.90
13049;DHT22;6591;51.446;5.404;2022-12-29T06:48:25;12.50;99.90
13049;DHT22;6591;51.446;5.404;2022-12-29T06:50:54;14.50;99.90
13049;DHT22;6591;51.446;5.404;2022-12-29T06:53:24;13.50;99.90
13049;DHT22;6591;51.446;5.404;2022-12-29T06:55:51;13.60;99.90
13049;DHT22;6591;51.446;5.404;2022-12-29T06:58:18;12.40;99.90
13049;DHT22;6591;51.446;5.404;2022-12-29T07:00:45;12.40;99.90
13049;DHT22;6591;51.446;5.404;2022-12-29T07:03:12;13.60;99.90
13049;DHT22;6591;51.446;5.404;2022-12-29T07:05:39;14.10;99.90
13049;DHT22;6591;51.446;5.404;2022-12-29T07:08:06;12.40;99.90
13049;DHT22;6591;51.446;5.404;2022-12-29T07:10:33;12.40;99.90
13049;DHT22;6591;51.446;5.404;2022-12-29T07:13:00;14.00;99.90
13049;DHT22;6591;51.446;5.404;2022-12-29T07:15:27;12.40;99.90
13049;DHT22;6591;51.446;5.404;2022-12-29T07:17:54;12.50;99.90
13049;DHT22;6591;51.446;5.404;2022-12-29T07:20:21;12.50;99.90
13049;DHT22;6591;51.446;5.404;2022-12-29T07:22:53;13.60;99.90
13049;DHT22;6591;51.446;5.404;2022-12-29T07:25:20;12.50;99.90
13049;DHT22;6591;51.446;5.404;2022-12-29T07:27:48;12.50;99.90
13049;DHT22;6591;51.446;5.404;2022-12-29T07:30:16;12.50;99.90
13049;DHT22;6591;51.446;5.404;2022-12-29T07:32:43;12.50;99.90
13049;DHT22;6591;51.446;5.404;2022-12-29T07:35:10;12.60;99.90
13049;DHT22;6591;51.446;5.404;2022-12-29T07:37:37;13.40;99.90
13049;DHT22;6591;51.446;5.404;2022-12-29T07:40:04;13.60;99.90
13049;DHT22;6591;51.446;5.404;2022-12-29T07:42:32;12.60;99.90
13049;DHT22;6591;51.446;5.404;2022-12-29T07:44:59;14.60;99.90
13049;DHT22;6591;51.446;5.404;2022-12-29T07:47:32;13.80;99.90
13049;DHT22;6591;51.446;5.404;2022-12-29T07:49:59;11.80;99.90
13049;DHT22;6591;51.446;5.404;2022-12-29T07:52:26;14.60;99.90
13049;DHT22;6591;51.446;5.404;2022-12-29T07:54:54;12.70;99.90
13049;DHT22;6591;51.446;5.404;2022-12-29T07:57:21;12.60;99.90
13049;DHT22;6591;51.446;5.404;2022-12-29T07:59:57;12.70;99.90
13049;DHT22;6591;51.446;5.404;2022-12-29T08:02:24;12.60;99.90
13049;DHT22;6591;51.446;5.404;2022-12-29T08:04:53;13.20;99.90
13049;DHT22;6591;51.446;5.404;2022-12-29T08:07:20;14.20;99.90
13049;DHT22;6591;51.446;5.404;2022-12-29T08:09:49;13.80;99.90
13049;DHT22;6591;51.446;5.404;2022-12-29T08:12:16;12.80;99.90
13049;DHT22;6591;51.446;5.404;2022-12-29T08:14:43;14.80;99.90
13049;DHT22;6591;51.446;5.404;2022-12-29T08:17:10;12.80;99.90
13049;DHT22;6591;51.446;5.404;2022-12-29T08:19:37;12.80;99.90
13049;DHT22;6591;51.446;5.404;2022-12-29T08:22:05;12.80;99.90
13049;DHT22;6591;51.446;5.404;2022-12-29T08:24:32;14.10;99.90
13049;DHT22;6591;51.446;5.404;2022-12-29T08:26:59;14.80;99.90
13049;DHT22;6591;51.446;5.404;2022-12-29T08:29:37;12.80;99.90
13049;DHT22;6591;51.446;5.404;2022-12-29T08:32:04;14.10;99.90
13049;DHT22;6591;51.446;5.404;2022-12-29T08:34:32;14.00;99.90
13049;DHT22;6591;51.446;5.404;2022-12-29T08:36:59;12.80;99.90
13049;DHT22;6591;51.446;5.404;2022-12-29T08:39:26;14.30;99.90
13049;DHT22;6591;51.446;5.404;2022-12-29T08:41:54;13.70;99.90
13049;DHT22;6591;51.446;5.404;2022-12-29T08:44:21;12.80;99.90
13049;DHT22;6591;51.446;5.404;2022-12-29T08:46:48;12.80;99.90
13049;DHT22;6591;51.446;5.404;2022-12-29T08:49:16;12.90;99.90
13049;DHT22;6591;51.446;5.404;2022-12-29T08:51:43;12.90;99.90
13049;DHT22;6591;51.446;5.404;2022-12-29T08:54:10;12.10;99.90
13049;DHT22;6591;51.446;5.404;2022-12-29T08:56:37;13.20;99.90
13049;DHT22;6591;51.446;5.404;2022-12-29T08:59:04;13.80;99.90
13049;DHT22;6591;51.446;5.404;2022-12-29T09:01:31;13.00;99.90
13049;DHT22;6591;51.446;5.404;2022-12-29T09:04:00;13.00;99.90
13049;DHT22;6591;51.446;5.404;2022-12-29T09:06:42;13.10;99.90
13049;DHT22;6591;51.446;5.404;2022-12-29T09:09:09;13.10;99.90
13049;DHT22;6591;51.446;5.404;2022-12-29T09:11:37;13.10;99.90
13049;DHT22;6591;51.446;5.404;2022-12-29T09:14:04;13.10;99.90
13049;DHT22;6591;51.446;5.404;2022-12-29T09:16:32;14.60;99.90
13049;DHT22;6591;51.446;5.404;2022-12-29T09:19:00;14.40;99.90
13049;DHT22;6591;51.446;5.404;2022-12-29T09:21:27;13.40;99.90
13049;DHT22;6591;51.446;5.404;2022-12-29T09:23:55;13.30;99.90
13049;DHT22;6591;51.446;5.404;2022-12-29T09:26:22;13.30;99.90
13049;DHT22;6591;51.446;5.404;2022-12-29T09:28:49;13.30;99.90
13049;DHT22;6591;51.446;5.404;2022-12-29T09:31:16;14.10;99.90
13049;DHT22;6591;51.446;5.404;2022-12-29T09:33:44;14.10;99.90
13049;DHT22;6591;51.446;5.404;2022-12-29T09:36:11;15.10;99.90
13049;DHT22;6591;51.446;5.404;2022-12-29T09:38:38;13.30;99.90
13049;DHT22;6591;51.446;5.404;2022-12-29T09:41:19;13.20;99.90
13049;DHT22;6591;51.446;5.404;2022-12-29T09:46:55;13.20;99.90
13049;DHT22;6591;51.446;5.404;2022-12-29T09:54:57;13.10;99.90
13049;DHT22;6591;51.446;5.404;2022-12-29T09:57:53;13.90;99.90
13049;DHT22;6591;51.446;5.404;2022-12-29T10:00:37;14.00;99.90
13049;DHT22;6591;51.446;5.404;2022-12-29T10:03:22;13.00;99.90
13049;DHT22;6591;51.446;5.404;2022-12-29T10:08:52;12.90;99.90
13049;DHT22;6591;51.446;5.404;2022-12-29T10:23:31;12.50;99.90
13049;DHT22;6591;51.446;5.404;2022-12-29T10:26:12;12.40;99.90
13049;DHT22;6591;51.446;5.404;2022-12-29T10:28:47;12.30;99.90
13049;DHT22;6591;51.446;5.404;2022-12-29T10:31:25;14.40;99.90
13049;DHT22;6591;51.446;5.404;2022-12-29T10:34:37;12.20;99.90
13049;DHT22;6591;51.446;5.404;2022-12-29T10:37:12;12.10;99.90
13049;DHT22;6591;51.446;5.404;2022-12-29T10:39:53;12.50;99.90
13049;DHT22;6591;51.446;5.404;2022-12-29T10:42:34;13.60;99.90
13049;DHT22;6591;51.446;5.404;2022-12-29T10:45:12;12.00;99.90
13049;DHT22;6591;51.446;5.404;2022-12-29T10:48:13;12.20;99.90
13049;DHT22;6591;51.446;5.404;2022-12-29T10:50:59;12.60;99.90
13049;DHT22;6591;51.446;5.404;2022-12-29T10:53:45;11.90;99.90
13049;DHT22;6591;51.446;5.404;2022-12-29T10:59:27;11.80;99.90
13049;DHT22;6591;51.446;5.404;2022-12-29T11:07:31;11.70;99.90
13049;DHT22;6591;51.446;5.404;2022-12-29T11:10:28;13.10;99.90
13049;DHT22;6591;51.446;5.404;2022-12-29T11:13:01;11.60;99.90
13049;DHT22;6591;51.446;5.404;2022-12-29T11:15:48;11.60;99.90
13049;DHT22;6591;51.446;5.404;2022-12-29T11:20:58;13.10;99.90
13049;DHT22;6591;51.446;5.404;2022-12-29T11:26:17;12.40;99.90
13049;DHT22;6591;51.446;5.404;2022-12-29T11:31:45;11.90;99.90
13049;DHT22;6591;51.446;5.404;2022-12-29T11:34:35;12.00;99.90
13049;DHT22;6591;51.446;5.404;2022-12-29T11:37:05;12.00;99.90
13049;DHT22;6591;51.446;5.404;2022-12-29T11:39:57;13.00;99.90
13049;DHT22;6591;51.446;5.404;2022-12-29T11:47:53;12.20;99.90
13049;DHT22;6591;51.446;5.404;2022-12-29T11:50:52;13.20;99.90
13049;DHT22;6591;51.446;5.404;2022-12-29T11:53:28;12.20;99.90
13049;DHT22;6591;51.446;5.404;2022-12-29T11:56:08;12.20;99.90
13049;DHT22;6591;51.446;5.404;2022-12-29T11:58:41;12.20;99.90
13049;DHT22;6591;51.446;5.404;2022-12-29T12:04:10;12.30;99.90
13049;DHT22;6591;51.446;5.404;2022-12-29T12:06:59;12.30;99.90
13049;DHT22;6591;51.446;5.404;2022-12-29T12:09:34;12.40;99.90
13049;DHT22;6591;51.446;5.404;2022-12-29T12:12:09;12.50;99.90
13049;DHT22;6591;51.446;5.404;2022-12-29T12:14:56;13.90;99.90
13049;DHT22;6591;51.446;5.404;2022-12-29T12:17:51;14.60;99.90
13049;DHT22;6591;51.446;5.404;2022-12-29T12:20:50;12.60;99.90
13049;DHT22;6591;51.446;5.404;2022-12-29T12:26:18;12.80;99.90
13049;DHT22;6591;51.446;5.404;2022-12-29T12:28:54;12.80;99.90
13049;DHT22;6591;51.446;5.404;2022-12-29T12:32:01;15.00;99.90
13049;DHT22;6591;51.446;5.404;2022-12-29T12:34:43;12.90;99.90
13049;DHT22;6591;51.446;5.404;2022-12-29T12:43:23;13.10;99.90
13049;DHT22;6591;51.446;5.404;2022-12-29T12:56:08;13.20;99.90
13049;DHT22;6591;51.446;5.404;2022-12-29T13:07:34;13.50;99.90
13049;DHT22;6591;51.446;5.404;2022-12-29T13:13:30;15.20;99.90
13049;DHT22;6591;51.446;5.404;2022-12-29T13:16:18;13.20;99.90
13049;DHT22;6591;51.446;5.404;2022-12-29T13:19:14;13.20;99.90
13049;DHT22;6591;51.446;5.404;2022-12-29T13:22:13;13.10;99.90
13049;DHT22;6591;51.446;5.404;2022-12-29T13:25:27;13.10;99.90
13049;DHT22;6591;51.446;5.404;2022-12-29T13:28:22;13.00;99.90
13049;DHT22;6591;51.446;5.404;2022-12-29T13:37:00;12.50;99.90
13049;DHT22;6591;51.446;5.404;2022-12-29T13:39:50;12.30;99.90
13049;DHT22;6591;51.446;5.404;2022-12-29T13:42:19;13.00;99.90
13049;DHT22;6591;51.446;5.404;2022-12-29T13:44:59;12.80;99.90
13049;DHT22;6591;51.446;5.404;2022-12-29T13:50:26;11.90;99.90
13049;DHT22;6591;51.446;5.404;2022-12-29T13:53:25;11.80;99.90
13049;DHT22;6591;51.446;5.404;2022-12-29T13:56:26;11.70;99.90
13049;DHT22;6591;51.446;5.404;2022-12-29T13:59:51;11.60;99.90
13049;DHT22;6591;51.446;5.404;2022-12-29T14:02:37;11.50;99.90
13049;DHT22;6591;51.446;5.404;2022-12-29T14:08:01;11.50;99.90
13049;DHT22;6591;51.446;5.404;2022-12-29T14:10:38;11.40;99.90
13049;DHT22;6591;51.446;5.404;2022-12-29T14:15:54;11.40;99.90
13049;DHT22;6591;51.446;5.404;2022-12-29T14:18:28;11.40;99.90
13049;DHT22;6591;51.446;5.404;2022-12-29T14:23:43;11.40;99.90
13049;DHT22;6591;51.446;5.404;2022-12-29T14:26:15;11.40;99.90
13049;DHT22;6591;51.446;5.404;2022-12-29T14:28:47;12.20;99.90
13049;DHT22;6591;51.446;5.404;2022-12-29T14:37:00;11.40;99.90
13049;DHT22;6591;51.446;5.404;2022-12-29T14:42:15;11.40;99.90
13049;DHT22;6591;51.446;5.404;2022-12-29T14:44:53;13.00;99.90
13049;DHT22;6591;51.446;5.404;2022-12-29T14:50:05;12.20;99.90
13049;DHT22;6591;51.446;5.404;2022-12-29T14:55:46;12.00;99.90
13049;DHT22;6591;51.446;5.404;2022-12-29T14:58:28;11.30;99.90
13049;DHT22;6591;51.446;5.404;2022-12-29T15:00:59;13.50;99.90
13049;DHT22;6591;51.446;5.404;2022-12-29T15:03:32;12.80;99.90
13049;DHT22;6591;51.446;5.404;2022-12-29T15:06:14;12.00;99.90
13049;DHT22;6591;51.446;5.404;2022-12-29T15:09:06;11.30;99.90
13049;DHT22;6591;51.446;5.404;2022-12-29T15:11:56;11.20;99.90
13049;DHT22;6591;51.446;5.404;2022-12-29T15:14:38;11.30;99.90
13049;DHT22;6591;51.446;5.404;2022-12-29T15:19:58;12.50;99.90
13049;DHT22;6591;51.446;5.404;2022-12-29T15:22:45;11.20;99.90
13049;DHT22;6591;51.446;5.404;2022-12-29T15:25:25;11.20;99.90
13049;DHT22;6591;51.446;5.404;2022-12-29T15:27:56;12.40;99.90
13049;DHT22;6591;51.446;5.404;2022-12-29T15:30:27;11.20;99.90
13049;DHT22;6591;51.446;5.404;2022-12-29T15:32:55;12.70;99.90
13049;DHT22;6591;51.446;5.404;2022-12-29T15:37:58;11.10;99.90
13049;DHT22;6591;51.446;5.404;2022-12-29T15:40:31;13.40;99.90
13049;DHT22;6591;51.446;5.404;2022-12-29T15:46:10;11.00;99.90
13049;DHT22;6591;51.446;5.404;2022-12-29T15:48:39;11.80;99.90
13049;DHT22;6591;51.446;5.404;2022-12-29T15:51:31;13.40;99.90
13049;DHT22;6591;51.446;5.404;2022-12-29T15:54:02;11.20;99.90
13049;DHT22;6591;51.446;5.404;2022-12-29T15:56:32;10.80;99.90
13049;DHT22;6591;51.446;5.404;2022-12-29T15:59:00;10.80;99.90
13049;DHT22;6591;51.446;5.404;2022-12-29T16:01:33;11.00;99.90
13049;DHT22;6591;51.446;5.404;2022-12-29T16:04:07;10.70;99.90
13049;DHT22;6591;51.446;5.404;2022-12-29T16:06:38;10.60;99.90
13049;DHT22;6591;51.446;5.404;2022-12-29T16:09:18;12.30;99.90
13049;DHT22;6591;51.446;5.404;2022-12-29T16:12:06;10.50;99.90
13049;DHT22;6591;51.446;5.404;2022-12-29T16:14:45;12.60;99.90
13049;DHT22;6591;51.446;5.404;2022-12-29T16:17:46;10.40;99.90
13049;DHT22;6591;51.446;5.404;2022-12-29T16:20:21;10.40;99.90
13049;DHT22;6591;51.446;5.404;2022-12-29T16:23:02;10.60;99.90
13049;DHT22;6591;51.446;5.404;2022-12-29T16:25:32;10.30;99.90
13049;DHT22;6591;51.446;5.404;2022-12-29T16:28:20;10.20;99.90
13049;DHT22;6591;51.446;5.404;2022-12-29T16:31:05;10.20;99.90
13049;DHT22;6591;51.446;5.404;2022-12-29T16:33:43;10.10;99.90
13049;DHT22;6591;51.446;5.404;2022-12-29T16:36:33;10.60;99.90
13049;DHT22;6591;51.446;5.404;2022-12-29T16:39:21;10.10;99.90
13049;DHT22;6591;51.446;5.404;2022-12-29T16:41:56;11.50;99.90
13049;DHT22;6591;51.446;5.404;2022-12-29T16:44:27;10.00;99.90
13049;DHT22;6591;51.446;5.404;2022-12-29T16:47:04;10.00;99.90
13049;DHT22;6591;51.446;5.404;2022-12-29T16:49:50;10.10;99.90
13049;DHT22;6591;51.446;5.404;2022-12-29T16:52:29;11.40;99.90
13049;DHT22;6591;51.446;5.404;2022-12-29T16:55:01;10.00;99.90
13049;DHT22;6591;51.446;5.404;2022-12-29T16:57:34;11.70;99.90
13049;DHT22;6591;51.446;5.404;2022-12-29T17:00:06;10.10;99.90
13049;DHT22;6591;51.446;5.404;2022-12-29T17:02:36;10.10;99.90
13049;DHT22;6591;51.446;5.404;2022-12-29T17:05:16;10.00;99.90
13049;DHT22;6591;51.446;5.404;2022-12-29T17:07:44;10.00;99.90
13049;DHT22;6591;51.446;5.404;2022-12-29T17:10:13;11.60;99.90
13049;DHT22;6591;51.446;5.404;2022-12-29T17:12:43;11.40;99.90
13049;DHT22;6591;51.446;5.404;2022-12-29T17:15:24;11.50;99.90
13049;DHT22;6591;51.446;5.404;2022-12-29T17:17:54;10.10;99.90
13049;DHT22;6591;51.446;5.404;2022-12-29T17:20:24;11.60;99.90
13049;DHT22;6591;51.446;5.404;2022-12-29T17:22:53;9.80;99.90
13049;DHT22;6591;51.446;5.404;2022-12-29T17:25:33;9.70;99.90
13049;DHT22;6591;51.446;5.404;2022-12-29T17:30:47;10.90;99.90
13049;DHT22;6591;51.446;5.404;2022-12-29T17:33:18;12.10;99.90
13049;DHT22;6591;51.446;5.404;2022-12-29T17:35:46;10.50;99.90
13049;DHT22;6591;51.446;5.404;2022-12-29T17:38:28;11.10;99.90
13049;DHT22;6591;51.446;5.404;2022-12-29T17:40:59;9.50;99.90
13049;DHT22;6591;51.446;5.404;2022-12-29T17:43:26;9.50;99.90
13049;DHT22;6591;51.446;5.404;2022-12-29T17:46:02;9.50;99.90
13049;DHT22;6591;51.446;5.404;2022-12-29T17:48:33;11.10;99.90
13049;DHT22;6591;51.446;5.404;2022-12-29T17:51:00;9.40;99.90
13049;DHT22;6591;51.446;5.404;2022-12-29T17:53:29;9.30;99.90
13049;DHT22;6591;51.446;5.404;2022-12-29T17:55:57;9.30;99.90
13049;DHT22;6591;51.446;5.404;2022-12-29T17:58:26;9.30;99.90
13049;DHT22;6591;51.446;5.404;2022-12-29T18:01:00;9.90;99.90
13049;DHT22;6591;51.446;5.404;2022-12-29T18:03:34;11.00;99.90
13049;DHT22;6591;51.446;5.404;2022-12-29T18:06:05;9.20;99.90
13049;DHT22;6591;51.446;5.404;2022-12-29T18:08:35;9.20;99.90
13049;DHT22;6591;51.446;5.404;2022-12-29T18:11:24;9.10;99.90
13049;DHT22;6591;51.446;5.404;2022-12-29T18:13:53;8.40;99.90
13049;DHT22;6591;51.446;5.404;2022-12-29T18:16:22;10.30;99.90
13049;DHT22;6591;51.446;5.404;2022-12-29T18:18:49;9.10;99.90
13049;DHT22;6591;51.446;5.404;2022-12-29T18:21:22;9.10;99.90
13049;DHT22;6591;51.446;5.404;2022-12-29T18:23:50;9.80;99.90
13049;DHT22;6591;51.446;5.404;2022-12-29T18:26:26;11.30;99.90
13049;DHT22;6591;51.446;5.404;2022-12-29T18:28:57;8.80;99.90
13049;DHT22;6591;51.446;5.404;2022-12-29T18:31:28;9.10;99.90
13049;DHT22;6591;51.446;5.404;2022-12-29T18:33:59;9.00;99.90
13049;DHT22;6591;51.446;5.404;2022-12-29T18:36:27;9.10;99.90
13049;DHT22;6591;51.446;5.404;2022-12-29T18:38:56;11.40;99.90
13049;DHT22;6591;51.446;5.404;2022-12-29T18:41:25;9.00;99.90
13049;DHT22;6591;51.446;5.404;2022-12-29T18:43:56;9.00;99.90
13049;DHT22;6591;51.446;5.404;2022-12-29T18:46:24;10.80;99.90
13049;DHT22;6591;51.446;5.404;2022-12-29T18:48:52;9.00;99.90
13049;DHT22;6591;51.446;5.404;2022-12-29T18:51:24;9.00;99.90
13049;DHT22;6591;51.446;5.404;2022-12-29T18:53:53;10.20;99.90
13049;DHT22;6591;51.446;5.404;2022-12-29T18:56:23;9.00;99.90
13049;DHT22;6591;51.446;5.404;2022-12-29T18:58:50;10.50;99.90
13049;DHT22;6591;51.446;5.404;2022-12-29T19:01:25;9.30;99.90
13049;DHT22;6591;51.446;5.404;2022-12-29T19:03:53;8.90;99.90
13049;DHT22;6591;51.446;5.404;2022-12-29T19:06:21;8.90;99.90
13049;DHT22;6591;51.446;5.404;2022-12-29T19:08:48;10.80;99.90
13049;DHT22;6591;51.446;5.404;2022-12-29T19:11:16;8.90;99.90
13049;DHT22;6591;51.446;5.404;2022-12-29T19:13:44;8.90;99.90